sensor_id;sensor_type;location;lat;lon;timestamp;P1;durP1;ratioP1;P2;durP2;ratioP2
81934;SDS011;71405;47.674;-2.050;2023-11-21T00:00:00;2.63;;;1.50;;
81934;SDS011;71405;47.674;-2.050;2023-11-21T00:02:26;2.45;;;1.60;;
81934;SDS011;71405;47.674;-2.050;2023-11-21T00:04:55;2.33;;;1.60;;
81934;SDS011;71405;47.674;-2.050;2023-11-21T00:07:20;1.65;;;1.30;;
81934;SDS011;71405;47.674;-2.050;2023-11-21T00:09:46;3.65;;;1.48;;
81934;SDS011;71405;47.674;-2.050;2023-11-21T00:12:12;1.75;;;1.33;;
81934;SDS011;71405;47.674;-2.050;2023-11-21T00:14:39;1.77;;;1.30;;
81934;SDS011;71405;47.674;-2.050;2023-11-21T00:17:05;1.85;;;1.38;;
81934;SDS011;71405;47.674;-2.050;2023-11-21T00:19:31;2.25;;;1.38;;
81934;SDS011;71405;47.674;-2.050;2023-11-21T00:21:58;2.45;;;1.45;;
81934;SDS011;71405;47.674;-2.050;2023-11-21T00:24:24;1.98;;;1.40;;
81934;SDS011;71405;47.674;-2.050;2023-11-21T00:26:51;3.00;;;1.50;;
81934;SDS011;71405;47.674;-2.050;2023-11-21T00:29:16;1.80;;;1.25;;
81934;SDS011;71405;47.674;-2.050;2023-11-21T00:31:43;3.15;;;1.42;;
81934;SDS011;71405;47.674;-2.050;2023-11-21T00:34:11;2.65;;;1.65;;
81934;SDS011;71405;47.674;-2.050;2023-11-21T00:36:37;2.67;;;1.30;;
81934;SDS011;71405;47.674;-2.050;2023-11-21T00:39:03;3.58;;;1.45;;
81934;SDS011;71405;47.674;-2.050;2023-11-21T00:41:30;1.67;;;1.20;;
81934;SDS011;71405;47.674;-2.050;2023-11-21T00:44:01;2.00;;;1.10;;
81934;SDS011;71405;47.674;-2.050;2023-11-21T00:46:27;2.75;;;1.20;;
81934;SDS011;71405;47.674;-2.050;2023-11-21T00:48:54;3.10;;;1.65;;
81934;SDS011;71405;47.674;-2.050;2023-11-21T00:51:20;2.63;;;1.13;;
81934;SDS011;71405;47.674;-2.050;2023-11-21T00:53:47;1.92;;;1.23;;
81934;SDS011;71405;47.674;-2.050;2023-11-21T00:56:13;2.55;;;1.42;;
81934;SDS011;71405;47.674;-2.050;2023-11-21T00:58:40;3.53;;;1.30;;
81934;SDS011;71405;47.674;-2.050;2023-11-21T01:01:11;2.35;;;1.20;;
81934;SDS011;71405;47.674;-2.050;2023-11-21T01:03:37;2.13;;;1.20;;
81934;SDS011;71405;47.674;-2.050;2023-11-21T01:06:03;1.60;;;1.20;;
81934;SDS011;71405;47.674;-2.050;2023-11-21T01:08:32;1.77;;;1.20;;
81934;SDS011;71405;47.674;-2.050;2023-11-21T01:10:58;1.77;;;1.15;;
81934;SDS011;71405;47.674;-2.050;2023-11-21T01:13:23;1.13;;;1.02;;
81934;SDS011;71405;47.674;-2.050;2023-11-21T01:15:53;2.45;;;1.13;;
81934;SDS011;71405;47.674;-2.050;2023-11-21T01:18:19;1.95;;;1.20;;
81934;SDS011;71405;47.674;-2.050;2023-11-21T01:20:45;1.17;;;1.00;;
81934;SDS011;71405;47.674;-2.050;2023-11-21T01:23:12;2.15;;;1.20;;
81934;SDS011;71405;47.674;-2.050;2023-11-21T01:25:38;1.17;;;1.00;;
81934;SDS011;71405;47.674;-2.050;2023-11-21T01:28:04;1.58;;;1.10;;
81934;SDS011;71405;47.674;-2.050;2023-11-21T01:30:30;1.75;;;1.10;;
81934;SDS011;71405;47.674;-2.050;2023-11-21T01:32:57;1.88;;;1.13;;
81934;SDS011;71405;47.674;-2.050;2023-11-21T01:35:23;1.45;;;1.00;;
81934;SDS011;71405;47.674;-2.050;2023-11-21T01:37:49;2.33;;;1.35;;
81934;SDS011;71405;47.674;-2.050;2023-11-21T01:40:14;1.17;;;0.90;;
81934;SDS011;71405;47.674;-2.050;2023-11-21T01:42:40;1.52;;;1.10;;
81934;SDS011;71405;47.674;-2.050;2023-11-21T01:45:08;1.48;;;1.15;;
81934;SDS011;71405;47.674;-2.050;2023-11-21T01:47:35;2.15;;;1.20;;
81934;SDS011;71405;47.674;-2.050;2023-11-21T01:50:01;1.02;;;0.90;;
81934;SDS011;71405;47.674;-2.050;2023-11-21T01:52:29;1.92;;;1.00;;
81934;SDS011;71405;47.674;-2.050;2023-11-21T01:54:56;1.00;;;0.90;;
81934;SDS011;71405;47.674;-2.050;2023-11-21T01:57:23;2.00;;;1.10;;
81934;SDS011;71405;47.674;-2.050;2023-11-21T01:59:49;0.85;;;0.70;;
81934;SDS011;71405;47.674;-2.050;2023-11-21T02:02:19;1.33;;;0.80;;
81934;SDS011;71405;47.674;-2.050;2023-11-21T02:04:44;1.65;;;1.10;;
81934;SDS011;71405;47.674;-2.050;2023-11-21T02:07:10;0.93;;;0.80;;
81934;SDS011;71405;47.674;-2.050;2023-11-21T02:09:36;1.05;;;0.95;;
81934;SDS011;71405;47.674;-2.050;2023-11-21T02:12:07;0.93;;;0.77;;
81934;SDS011;71405;47.674;-2.050;2023-11-21T02:14:35;2.13;;;0.95;;
81934;SDS011;71405;47.674;-2.050;2023-11-21T02:17:01;1.17;;;1.00;;
81934;SDS011;71405;47.674;-2.050;2023-11-21T02:19:28;1.38;;;1.00;;
81934;SDS011;71405;47.674;-2.050;2023-11-21T02:21:59;1.33;;;0.90;;
81934;SDS011;71405;47.674;-2.050;2023-11-21T02:24:31;1.08;;;0.73;;
81934;SDS011;71405;47.674;-2.050;2023-11-21T02:26:57;1.13;;;0.82;;
81934;SDS011;71405;47.674;-2.050;2023-11-21T02:29:23;1.30;;;0.95;;
81934;SDS011;71405;47.674;-2.050;2023-11-21T02:31:53;0.82;;;0.80;;
81934;SDS011;71405;47.674;-2.050;2023-11-21T02:34:20;1.10;;;0.90;;
81934;SDS011;71405;47.674;-2.050;2023-11-21T02:36:46;1.15;;;0.98;;
81934;SDS011;71405;47.674;-2.050;2023-11-21T02:39:16;0.65;;;0.65;;
81934;SDS011;71405;47.674;-2.050;2023-11-21T02:41:43;1.45;;;0.90;;
81934;SDS011;71405;47.674;-2.050;2023-11-21T02:44:09;1.75;;;0.90;;
81934;SDS011;71405;47.674;-2.050;2023-11-21T02:46:35;1.13;;;0.80;;
81934;SDS011;71405;47.674;-2.050;2023-11-21T02:49:02;1.77;;;0.80;;
81934;SDS011;71405;47.674;-2.050;2023-11-21T02:51:28;2.42;;;0.90;;
81934;SDS011;71405;47.674;-2.050;2023-11-21T02:53:55;1.58;;;1.10;;
81934;SDS011;71405;47.674;-2.050;2023-11-21T02:56:25;1.30;;;0.82;;
81934;SDS011;71405;47.674;-2.050;2023-11-21T02:58:51;1.27;;;0.80;;
81934;SDS011;71405;47.674;-2.050;2023-11-21T03:01:17;1.42;;;0.80;;
81934;SDS011;71405;47.674;-2.050;2023-11-21T03:03:43;1.23;;;0.77;;
81934;SDS011;71405;47.674;-2.050;2023-11-21T03:06:08;0.93;;;0.55;;
81934;SDS011;71405;47.674;-2.050;2023-11-21T03:08:34;1.10;;;0.80;;
81934;SDS011;71405;47.674;-2.050;2023-11-21T03:11:00;1.55;;;0.80;;
81934;SDS011;71405;47.674;-2.050;2023-11-21T03:13:28;0.60;;;0.60;;
81934;SDS011;71405;47.674;-2.050;2023-11-21T03:15:53;1.48;;;0.70;;
81934;SDS011;71405;47.674;-2.050;2023-11-21T03:18:19;1.20;;;0.70;;
81934;SDS011;71405;47.674;-2.050;2023-11-21T03:20:47;2.28;;;0.70;;
81934;SDS011;71405;47.674;-2.050;2023-11-21T03:23:13;1.00;;;0.90;;
81934;SDS011;71405;47.674;-2.050;2023-11-21T03:25:38;1.10;;;0.70;;
81934;SDS011;71405;47.674;-2.050;2023-11-21T03:28:04;1.20;;;0.70;;
81934;SDS011;71405;47.674;-2.050;2023-11-21T03:30:30;2.05;;;1.10;;
81934;SDS011;71405;47.674;-2.050;2023-11-21T03:32:55;1.05;;;0.70;;
81934;SDS011;71405;47.674;-2.050;2023-11-21T03:35:21;0.52;;;0.52;;
81934;SDS011;71405;47.674;-2.050;2023-11-21T03:37:47;1.40;;;0.70;;
81934;SDS011;71405;47.674;-2.050;2023-11-21T03:40:13;1.77;;;0.80;;
81934;SDS011;71405;47.674;-2.050;2023-11-21T03:42:39;0.80;;;0.70;;
81934;SDS011;71405;47.674;-2.050;2023-11-21T03:45:05;0.65;;;0.65;;
81934;SDS011;71405;47.674;-2.050;2023-11-21T03:47:31;1.27;;;0.70;;
81934;SDS011;71405;47.674;-2.050;2023-11-21T03:49:57;1.00;;;0.80;;
81934;SDS011;71405;47.674;-2.050;2023-11-21T03:52:23;1.35;;;0.70;;
81934;SDS011;71405;47.674;-2.050;2023-11-21T03:54:49;0.75;;;0.70;;
81934;SDS011;71405;47.674;-2.050;2023-11-21T03:57:15;1.83;;;0.77;;
81934;SDS011;71405;47.674;-2.050;2023-11-21T03:59:41;0.95;;;0.68;;
81934;SDS011;71405;47.674;-2.050;2023-11-21T04:02:07;0.93;;;0.70;;
81934;SDS011;71405;47.674;-2.050;2023-11-21T04:04:34;2.55;;;0.88;;
81934;SDS011;71405;47.674;-2.050;2023-11-21T04:07:00;1.55;;;0.77;;
81934;SDS011;71405;47.674;-2.050;2023-11-21T04:09:25;1.13;;;0.70;;
81934;SDS011;71405;47.674;-2.050;2023-11-21T04:11:52;1.15;;;0.63;;
81934;SDS011;71405;47.674;-2.050;2023-11-21T04:14:18;1.42;;;0.80;;
81934;SDS011;71405;47.674;-2.050;2023-11-21T04:16:45;1.25;;;0.70;;
81934;SDS011;71405;47.674;-2.050;2023-11-21T04:19:11;0.88;;;0.75;;
81934;SDS011;71405;47.674;-2.050;2023-11-21T04:21:39;0.88;;;0.52;;
81934;SDS011;71405;47.674;-2.050;2023-11-21T04:24:06;1.42;;;0.60;;
81934;SDS011;71405;47.674;-2.050;2023-11-21T04:26:32;0.90;;;0.55;;
81934;SDS011;71405;47.674;-2.050;2023-11-21T04:28:57;1.15;;;0.60;;
81934;SDS011;71405;47.674;-2.050;2023-11-21T04:31:23;1.42;;;0.90;;
81934;SDS011;71405;47.674;-2.050;2023-11-21T04:33:49;1.50;;;0.70;;
81934;SDS011;71405;47.674;-2.050;2023-11-21T04:36:15;0.73;;;0.60;;
81934;SDS011;71405;47.674;-2.050;2023-11-21T04:38:40;1.20;;;0.80;;
81934;SDS011;71405;47.674;-2.050;2023-11-21T04:41:06;1.52;;;0.70;;
81934;SDS011;71405;47.674;-2.050;2023-11-21T04:43:32;1.58;;;0.90;;
81934;SDS011;71405;47.674;-2.050;2023-11-21T04:45:58;1.20;;;0.63;;
81934;SDS011;71405;47.674;-2.050;2023-11-21T04:48:23;1.05;;;0.70;;
81934;SDS011;71405;47.674;-2.050;2023-11-21T04:50:50;0.73;;;0.65;;
81934;SDS011;71405;47.674;-2.050;2023-11-21T04:53:16;1.02;;;0.70;;
81934;SDS011;71405;47.674;-2.050;2023-11-21T04:55:42;0.70;;;0.50;;
81934;SDS011;71405;47.674;-2.050;2023-11-21T04:58:09;1.98;;;0.82;;
81934;SDS011;71405;47.674;-2.050;2023-11-21T05:00:36;1.20;;;0.77;;
81934;SDS011;71405;47.674;-2.050;2023-11-21T05:03:02;0.90;;;0.70;;
81934;SDS011;71405;47.674;-2.050;2023-11-21T05:05:29;1.70;;;0.60;;
81934;SDS011;71405;47.674;-2.050;2023-11-21T05:07:57;0.82;;;0.70;;
81934;SDS011;71405;47.674;-2.050;2023-11-21T05:10:23;2.15;;;0.70;;
81934;SDS011;71405;47.674;-2.050;2023-11-21T05:12:48;1.48;;;0.80;;
81934;SDS011;71405;47.674;-2.050;2023-11-21T05:15:15;1.42;;;0.68;;
81934;SDS011;71405;47.674;-2.050;2023-11-21T05:17:42;0.82;;;0.50;;
81934;SDS011;71405;47.674;-2.050;2023-11-21T05:20:12;1.60;;;0.70;;
81934;SDS011;71405;47.674;-2.050;2023-11-21T05:22:39;0.65;;;0.60;;
81934;SDS011;71405;47.674;-2.050;2023-11-21T05:25:05;1.00;;;0.70;;
81934;SDS011;71405;47.674;-2.050;2023-11-21T05:27:36;1.98;;;0.80;;
81934;SDS011;71405;47.674;-2.050;2023-11-21T05:30:02;1.15;;;0.57;;
81934;SDS011;71405;47.674;-2.050;2023-11-21T05:32:30;1.35;;;0.70;;
81934;SDS011;71405;47.674;-2.050;2023-11-21T05:34:56;1.98;;;0.60;;
81934;SDS011;71405;47.674;-2.050;2023-11-21T05:37:22;0.60;;;0.50;;
81934;SDS011;71405;47.674;-2.050;2023-11-21T05:39:48;0.90;;;0.68;;
81934;SDS011;71405;47.674;-2.050;2023-11-21T05:42:14;1.15;;;0.70;;
81934;SDS011;71405;47.674;-2.050;2023-11-21T05:44:43;1.15;;;0.68;;
81934;SDS011;71405;47.674;-2.050;2023-11-21T05:47:09;1.45;;;0.85;;
81934;SDS011;71405;47.674;-2.050;2023-11-21T05:49:35;0.85;;;0.65;;
81934;SDS011;71405;47.674;-2.050;2023-11-21T05:52:01;0.68;;;0.60;;
81934;SDS011;71405;47.674;-2.050;2023-11-21T05:54:27;4.20;;;2.35;;
81934;SDS011;71405;47.674;-2.050;2023-11-21T05:56:54;6.20;;;3.63;;
81934;SDS011;71405;47.674;-2.050;2023-11-21T05:59:20;2.88;;;1.60;;
81934;SDS011;71405;47.674;-2.050;2023-11-21T06:01:45;5.15;;;2.60;;
81934;SDS011;71405;47.674;-2.050;2023-11-21T06:04:11;6.43;;;3.47;;
81934;SDS011;71405;47.674;-2.050;2023-11-21T06:06:37;6.65;;;3.80;;
81934;SDS011;71405;47.674;-2.050;2023-11-21T06:09:04;6.45;;;3.35;;
81934;SDS011;71405;47.674;-2.050;2023-11-21T06:11:31;4.80;;;2.80;;
81934;SDS011;71405;47.674;-2.050;2023-11-21T06:13:56;5.15;;;2.83;;
81934;SDS011;71405;47.674;-2.050;2023-11-21T06:16:23;4.93;;;2.80;;
81934;SDS011;71405;47.674;-2.050;2023-11-21T06:18:49;4.65;;;2.45;;
81934;SDS011;71405;47.674;-2.050;2023-11-21T06:21:14;4.45;;;2.63;;
81934;SDS011;71405;47.674;-2.050;2023-11-21T06:23:41;3.50;;;2.30;;
81934;SDS011;71405;47.674;-2.050;2023-11-21T06:26:07;5.28;;;2.60;;
81934;SDS011;71405;47.674;-2.050;2023-11-21T06:28:34;11.00;;;4.80;;
81934;SDS011;71405;47.674;-2.050;2023-11-21T06:31:01;6.80;;;2.72;;
81934;SDS011;71405;47.674;-2.050;2023-11-21T06:33:30;4.95;;;2.20;;
81934;SDS011;71405;47.674;-2.050;2023-11-21T06:35:56;4.57;;;2.20;;
81934;SDS011;71405;47.674;-2.050;2023-11-21T06:38:22;4.65;;;2.20;;
81934;SDS011;71405;47.674;-2.050;2023-11-21T06:40:48;4.45;;;2.13;;
81934;SDS011;71405;47.674;-2.050;2023-11-21T06:43:13;5.45;;;2.50;;
81934;SDS011;71405;47.674;-2.050;2023-11-21T06:45:40;4.40;;;2.03;;
81934;SDS011;71405;47.674;-2.050;2023-11-21T06:48:06;11.52;;;9.02;;
81934;SDS011;71405;47.674;-2.050;2023-11-21T06:50:31;12.25;;;8.32;;
81934;SDS011;71405;47.674;-2.050;2023-11-21T06:52:57;7.47;;;4.25;;
81934;SDS011;71405;47.674;-2.050;2023-11-21T06:55:23;9.15;;;5.85;;
81934;SDS011;71405;47.674;-2.050;2023-11-21T06:57:48;9.95;;;5.97;;
81934;SDS011;71405;47.674;-2.050;2023-11-21T07:00:15;8.25;;;5.25;;
81934;SDS011;71405;47.674;-2.050;2023-11-21T07:02:42;8.27;;;5.00;;
81934;SDS011;71405;47.674;-2.050;2023-11-21T07:05:08;7.15;;;4.35;;
81934;SDS011;71405;47.674;-2.050;2023-11-21T07:07:34;7.75;;;4.15;;
81934;SDS011;71405;47.674;-2.050;2023-11-21T07:10:02;7.18;;;4.13;;
81934;SDS011;71405;47.674;-2.050;2023-11-21T07:12:28;6.55;;;3.85;;
81934;SDS011;71405;47.674;-2.050;2023-11-21T07:14:56;7.13;;;4.07;;
81934;SDS011;71405;47.674;-2.050;2023-11-21T07:17:22;11.52;;;5.50;;
81934;SDS011;71405;47.674;-2.050;2023-11-21T07:19:48;15.55;;;7.07;;
81934;SDS011;71405;47.674;-2.050;2023-11-21T07:22:15;25.95;;;10.35;;
81934;SDS011;71405;47.674;-2.050;2023-11-21T07:24:47;20.80;;;8.50;;
81934;SDS011;71405;47.674;-2.050;2023-11-21T07:27:16;19.83;;;8.23;;
81934;SDS011;71405;47.674;-2.050;2023-11-21T07:29:42;14.10;;;6.70;;
81934;SDS011;71405;47.674;-2.050;2023-11-21T07:32:08;14.23;;;5.90;;
81934;SDS011;71405;47.674;-2.050;2023-11-21T07:34:34;11.93;;;5.32;;
81934;SDS011;71405;47.674;-2.050;2023-11-21T07:37:01;13.30;;;5.80;;
81934;SDS011;71405;47.674;-2.050;2023-11-21T07:39:27;12.65;;;5.63;;
81934;SDS011;71405;47.674;-2.050;2023-11-21T07:41:53;11.68;;;5.55;;
81934;SDS011;71405;47.674;-2.050;2023-11-21T07:44:19;13.95;;;5.78;;
81934;SDS011;71405;47.674;-2.050;2023-11-21T07:46:45;13.48;;;5.47;;
81934;SDS011;71405;47.674;-2.050;2023-11-21T07:49:11;12.32;;;5.32;;
81934;SDS011;71405;47.674;-2.050;2023-11-21T07:51:42;9.85;;;5.13;;
81934;SDS011;71405;47.674;-2.050;2023-11-21T07:54:09;11.27;;;4.82;;
81934;SDS011;71405;47.674;-2.050;2023-11-21T07:56:35;11.10;;;4.68;;
81934;SDS011;71405;47.674;-2.050;2023-11-21T07:59:01;11.48;;;4.43;;
81934;SDS011;71405;47.674;-2.050;2023-11-21T08:01:26;10.00;;;4.03;;
81934;SDS011;71405;47.674;-2.050;2023-11-21T08:03:53;10.60;;;4.32;;
81934;SDS011;71405;47.674;-2.050;2023-11-21T08:06:22;9.43;;;4.38;;
81934;SDS011;71405;47.674;-2.050;2023-11-21T08:08:51;9.00;;;4.40;;
81934;SDS011;71405;47.674;-2.050;2023-11-21T08:11:16;11.82;;;4.43;;
81934;SDS011;71405;47.674;-2.050;2023-11-21T08:13:42;10.13;;;4.32;;
81934;SDS011;71405;47.674;-2.050;2023-11-21T08:16:08;8.52;;;3.88;;
81934;SDS011;71405;47.674;-2.050;2023-11-21T08:18:33;9.55;;;3.90;;
81934;SDS011;71405;47.674;-2.050;2023-11-21T08:20:59;9.38;;;3.85;;
81934;SDS011;71405;47.674;-2.050;2023-11-21T08:23:25;8.65;;;3.08;;
81934;SDS011;71405;47.674;-2.050;2023-11-21T08:25:51;7.80;;;2.90;;
81934;SDS011;71405;47.674;-2.050;2023-11-21T08:28:18;8.65;;;3.20;;
81934;SDS011;71405;47.674;-2.050;2023-11-21T08:30:44;8.30;;;2.97;;
81934;SDS011;71405;47.674;-2.050;2023-11-21T08:33:10;8.60;;;3.33;;
81934;SDS011;71405;47.674;-2.050;2023-11-21T08:35:38;7.22;;;3.05;;
81934;SDS011;71405;47.674;-2.050;2023-11-21T08:38:04;7.00;;;3.30;;
81934;SDS011;71405;47.674;-2.050;2023-11-21T08:40:30;9.82;;;3.17;;
81934;SDS011;71405;47.674;-2.050;2023-11-21T08:42:56;8.65;;;3.10;;
81934;SDS011;71405;47.674;-2.050;2023-11-21T08:45:23;6.97;;;3.03;;
81934;SDS011;71405;47.674;-2.050;2023-11-21T08:47:51;7.82;;;3.00;;
81934;SDS011;71405;47.674;-2.050;2023-11-21T08:50:16;7.57;;;3.10;;
81934;SDS011;71405;47.674;-2.050;2023-11-21T08:52:43;6.03;;;2.72;;
81934;SDS011;71405;47.674;-2.050;2023-11-21T08:55:10;7.47;;;2.80;;
81934;SDS011;71405;47.674;-2.050;2023-11-21T08:57:38;5.50;;;2.75;;
81934;SDS011;71405;47.674;-2.050;2023-11-21T09:00:06;6.30;;;2.72;;
81934;SDS011;71405;47.674;-2.050;2023-11-21T09:02:40;6.47;;;2.47;;
81934;SDS011;71405;47.674;-2.050;2023-11-21T09:05:07;6.55;;;2.83;;
81934;SDS011;71405;47.674;-2.050;2023-11-21T09:07:36;6.30;;;2.78;;
81934;SDS011;71405;47.674;-2.050;2023-11-21T09:10:03;6.82;;;2.88;;
81934;SDS011;71405;47.674;-2.050;2023-11-21T09:12:31;6.95;;;2.60;;
81934;SDS011;71405;47.674;-2.050;2023-11-21T09:14:57;6.70;;;2.67;;
81934;SDS011;71405;47.674;-2.050;2023-11-21T09:17:23;6.35;;;2.70;;
81934;SDS011;71405;47.674;-2.050;2023-11-21T09:19:49;5.63;;;2.65;;
81934;SDS011;71405;47.674;-2.050;2023-11-21T09:22:15;5.85;;;2.40;;
81934;SDS011;71405;47.674;-2.050;2023-11-21T09:24:41;5.72;;;2.63;;
81934;SDS011;71405;47.674;-2.050;2023-11-21T09:27:07;5.95;;;2.28;;
81934;SDS011;71405;47.674;-2.050;2023-11-21T09:29:34;6.30;;;2.63;;
81934;SDS011;71405;47.674;-2.050;2023-11-21T09:32:00;5.88;;;2.33;;
81934;SDS011;71405;47.674;-2.050;2023-11-21T09:34:26;5.93;;;2.38;;
81934;SDS011;71405;47.674;-2.050;2023-11-21T09:36:52;3.83;;;1.90;;
81934;SDS011;71405;47.674;-2.050;2023-11-21T09:39:19;6.07;;;2.40;;
81934;SDS011;71405;47.674;-2.050;2023-11-21T09:44:22;5.38;;;2.10;;
81934;SDS011;71405;47.674;-2.050;2023-11-21T09:47:00;5.55;;;2.05;;
81934;SDS011;71405;47.674;-2.050;2023-11-21T09:49:28;4.97;;;2.08;;
81934;SDS011;71405;47.674;-2.050;2023-11-21T09:51:57;5.53;;;2.15;;
81934;SDS011;71405;47.674;-2.050;2023-11-21T09:54:28;4.82;;;2.13;;
81934;SDS011;71405;47.674;-2.050;2023-11-21T09:56:56;4.50;;;2.15;;
81934;SDS011;71405;47.674;-2.050;2023-11-21T09:59:25;4.47;;;2.05;;
81934;SDS011;71405;47.674;-2.050;2023-11-21T10:01:59;4.43;;;1.90;;
81934;SDS011;71405;47.674;-2.050;2023-11-21T10:04:25;6.22;;;2.38;;
81934;SDS011;71405;47.674;-2.050;2023-11-21T10:06:52;5.60;;;2.28;;
81934;SDS011;71405;47.674;-2.050;2023-11-21T10:09:18;4.00;;;1.98;;
81934;SDS011;71405;47.674;-2.050;2023-11-21T10:11:45;4.57;;;1.98;;
81934;SDS011;71405;47.674;-2.050;2023-11-21T10:14:14;4.30;;;2.13;;
81934;SDS011;71405;47.674;-2.050;2023-11-21T10:16:44;4.72;;;1.98;;
81934;SDS011;71405;47.674;-2.050;2023-11-21T10:19:12;4.70;;;1.90;;
81934;SDS011;71405;47.674;-2.050;2023-11-21T10:21:42;3.85;;;2.05;;
81934;SDS011;71405;47.674;-2.050;2023-11-21T10:24:08;3.60;;;1.80;;
81934;SDS011;71405;47.674;-2.050;2023-11-21T10:26:33;4.35;;;1.77;;
81934;SDS011;71405;47.674;-2.050;2023-11-21T10:29:01;3.55;;;1.65;;
81934;SDS011;71405;47.674;-2.050;2023-11-21T10:31:30;3.60;;;1.70;;
81934;SDS011;71405;47.674;-2.050;2023-11-21T10:34:15;4.07;;;1.88;;
81934;SDS011;71405;47.674;-2.050;2023-11-21T10:36:43;4.65;;;1.80;;
81934;SDS011;71405;47.674;-2.050;2023-11-21T10:39:09;2.97;;;1.70;;
81934;SDS011;71405;47.674;-2.050;2023-11-21T10:41:39;3.90;;;2.00;;
81934;SDS011;71405;47.674;-2.050;2023-11-21T10:44:04;3.30;;;1.60;;
81934;SDS011;71405;47.674;-2.050;2023-11-21T10:46:34;3.97;;;1.77;;
81934;SDS011;71405;47.674;-2.050;2023-11-21T10:49:00;3.38;;;1.58;;
81934;SDS011;71405;47.674;-2.050;2023-11-21T10:51:27;4.82;;;2.13;;
81934;SDS011;71405;47.674;-2.050;2023-11-21T10:53:53;2.85;;;1.33;;
81934;SDS011;71405;47.674;-2.050;2023-11-21T10:56:19;4.50;;;1.73;;
81934;SDS011;71405;47.674;-2.050;2023-11-21T10:58:50;3.67;;;1.67;;
81934;SDS011;71405;47.674;-2.050;2023-11-21T11:01:19;2.53;;;1.40;;
81934;SDS011;71405;47.674;-2.050;2023-11-21T11:03:48;4.63;;;1.70;;
81934;SDS011;71405;47.674;-2.050;2023-11-21T11:06:15;2.83;;;1.50;;
81934;SDS011;71405;47.674;-2.050;2023-11-21T11:08:41;2.75;;;1.38;;
81934;SDS011;71405;47.674;-2.050;2023-11-21T11:11:07;3.63;;;1.52;;
81934;SDS011;71405;47.674;-2.050;2023-11-21T11:13:35;3.60;;;1.70;;
81934;SDS011;71405;47.674;-2.050;2023-11-21T11:16:02;2.55;;;1.40;;
81934;SDS011;71405;47.674;-2.050;2023-11-21T11:18:32;2.80;;;1.33;;
81934;SDS011;71405;47.674;-2.050;2023-11-21T11:21:09;3.35;;;1.60;;
81934;SDS011;71405;47.674;-2.050;2023-11-21T11:23:49;3.15;;;1.60;;
81934;SDS011;71405;47.674;-2.050;2023-11-21T11:26:28;3.20;;;1.60;;
81934;SDS011;71405;47.674;-2.050;2023-11-21T11:35:24;4.13;;;1.50;;
81934;SDS011;71405;47.674;-2.050;2023-11-21T11:37:54;2.75;;;1.33;;
81934;SDS011;71405;47.674;-2.050;2023-11-21T11:40:19;2.83;;;1.30;;
81934;SDS011;71405;47.674;-2.050;2023-11-21T11:42:58;2.50;;;1.48;;
81934;SDS011;71405;47.674;-2.050;2023-11-21T11:48:02;2.53;;;1.40;;
81934;SDS011;71405;47.674;-2.050;2023-11-21T11:50:28;2.95;;;1.25;;
81934;SDS011;71405;47.674;-2.050;2023-11-21T11:52:55;3.00;;;1.30;;
81934;SDS011;71405;47.674;-2.050;2023-11-21T11:55:38;3.55;;;1.50;;
81934;SDS011;71405;47.674;-2.050;2023-11-21T11:58:05;3.00;;;1.40;;
81934;SDS011;71405;47.674;-2.050;2023-11-21T12:03:00;2.35;;;1.27;;
81934;SDS011;71405;47.674;-2.050;2023-11-21T12:05:31;1.33;;;1.15;;
81934;SDS011;71405;47.674;-2.050;2023-11-21T12:07:59;2.80;;;1.20;;
81934;SDS011;71405;47.674;-2.050;2023-11-21T12:10:27;2.67;;;1.30;;
81934;SDS011;71405;47.674;-2.050;2023-11-21T12:12:57;1.75;;;1.20;;
81934;SDS011;71405;47.674;-2.050;2023-11-21T12:15:24;2.20;;;1.30;;
81934;SDS011;71405;47.674;-2.050;2023-11-21T12:17:51;3.40;;;1.42;;
81934;SDS011;71405;47.674;-2.050;2023-11-21T12:20:21;1.13;;;1.00;;
81934;SDS011;71405;47.674;-2.050;2023-11-21T12:22:55;1.60;;;1.13;;
81934;SDS011;71405;47.674;-2.050;2023-11-21T12:25:25;3.53;;;1.45;;
81934;SDS011;71405;47.674;-2.050;2023-11-21T12:27:57;2.65;;;1.20;;
81934;SDS011;71405;47.674;-2.050;2023-11-21T12:30:25;1.98;;;1.00;;
81934;SDS011;71405;47.674;-2.050;2023-11-21T12:32:58;1.73;;;1.15;;
81934;SDS011;71405;47.674;-2.050;2023-11-21T12:35:25;2.88;;;1.27;;
81934;SDS011;71405;47.674;-2.050;2023-11-21T12:38:01;2.03;;;1.10;;
81934;SDS011;71405;47.674;-2.050;2023-11-21T12:40:29;2.38;;;1.20;;
81934;SDS011;71405;47.674;-2.050;2023-11-21T12:42:58;1.88;;;1.00;;
81934;SDS011;71405;47.674;-2.050;2023-11-21T12:45:26;2.13;;;1.13;;
81934;SDS011;71405;47.674;-2.050;2023-11-21T12:50:29;2.83;;;1.20;;
81934;SDS011;71405;47.674;-2.050;2023-11-21T12:55:35;2.45;;;1.10;;
81934;SDS011;71405;47.674;-2.050;2023-11-21T12:58:02;1.30;;;1.00;;
81934;SDS011;71405;47.674;-2.050;2023-11-21T13:00:36;1.42;;;0.93;;
81934;SDS011;71405;47.674;-2.050;2023-11-21T13:03:04;1.20;;;0.90;;
81934;SDS011;71405;47.674;-2.050;2023-11-21T13:05:35;1.35;;;0.90;;
81934;SDS011;71405;47.674;-2.050;2023-11-21T13:08:05;1.70;;;1.02;;
81934;SDS011;71405;47.674;-2.050;2023-11-21T13:10:37;2.17;;;1.10;;
81934;SDS011;71405;47.674;-2.050;2023-11-21T13:13:09;1.40;;;0.90;;
81934;SDS011;71405;47.674;-2.050;2023-11-21T13:15:46;1.30;;;0.80;;
81934;SDS011;71405;47.674;-2.050;2023-11-21T13:18:23;1.77;;;1.00;;
81934;SDS011;71405;47.674;-2.050;2023-11-21T13:20:49;2.83;;;1.10;;
81934;SDS011;71405;47.674;-2.050;2023-11-21T13:23:15;1.02;;;0.80;;
81934;SDS011;71405;47.674;-2.050;2023-11-21T13:25:42;0.88;;;0.80;;
81934;SDS011;71405;47.674;-2.050;2023-11-21T13:28:10;0.80;;;0.80;;
81934;SDS011;71405;47.674;-2.050;2023-11-21T13:30:36;1.38;;;1.00;;
81934;SDS011;71405;47.674;-2.050;2023-11-21T13:33:05;1.00;;;0.90;;
81934;SDS011;71405;47.674;-2.050;2023-11-21T13:35:39;2.17;;;1.00;;
81934;SDS011;71405;47.674;-2.050;2023-11-21T13:38:11;1.30;;;0.90;;
81934;SDS011;71405;47.674;-2.050;2023-11-21T13:40:39;1.13;;;0.90;;
81934;SDS011;71405;47.674;-2.050;2023-11-21T13:43:10;1.27;;;0.95;;
81934;SDS011;71405;47.674;-2.050;2023-11-21T13:45:36;0.80;;;0.70;;
81934;SDS011;71405;47.674;-2.050;2023-11-21T13:48:04;1.10;;;0.73;;
81934;SDS011;71405;47.674;-2.050;2023-11-21T13:50:35;0.90;;;0.90;;
81934;SDS011;71405;47.674;-2.050;2023-11-21T13:53:04;2.15;;;1.00;;
81934;SDS011;71405;47.674;-2.050;2023-11-21T13:55:44;0.98;;;0.90;;
81934;SDS011;71405;47.674;-2.050;2023-11-21T13:58:10;2.38;;;0.98;;
81934;SDS011;71405;47.674;-2.050;2023-11-21T14:00:42;1.27;;;0.70;;
81934;SDS011;71405;47.674;-2.050;2023-11-21T14:03:12;1.48;;;0.90;;
81934;SDS011;71405;47.674;-2.050;2023-11-21T14:05:46;1.45;;;0.73;;
81934;SDS011;71405;47.674;-2.050;2023-11-21T14:08:17;1.10;;;0.80;;
81934;SDS011;71405;47.674;-2.050;2023-11-21T14:10:49;0.60;;;0.60;;
81934;SDS011;71405;47.674;-2.050;2023-11-21T14:13:25;1.42;;;0.70;;
81934;SDS011;71405;47.674;-2.050;2023-11-21T14:15:52;1.63;;;0.85;;
81934;SDS011;71405;47.674;-2.050;2023-11-21T14:18:26;1.35;;;0.80;;
81934;SDS011;71405;47.674;-2.050;2023-11-21T14:20:59;1.67;;;0.77;;
81934;SDS011;71405;47.674;-2.050;2023-11-21T14:23:25;1.10;;;0.77;;
81934;SDS011;71405;47.674;-2.050;2023-11-21T14:25:50;0.70;;;0.70;;
81934;SDS011;71405;47.674;-2.050;2023-11-21T14:28:17;1.17;;;0.73;;
81934;SDS011;71405;47.674;-2.050;2023-11-21T14:30:44;0.60;;;0.60;;
81934;SDS011;71405;47.674;-2.050;2023-11-21T14:33:11;1.48;;;0.82;;
81934;SDS011;71405;47.674;-2.050;2023-11-21T14:35:37;0.88;;;0.70;;
81934;SDS011;71405;47.674;-2.050;2023-11-21T14:38:03;1.52;;;0.88;;
81934;SDS011;71405;47.674;-2.050;2023-11-21T14:40:33;0.73;;;0.68;;
81934;SDS011;71405;47.674;-2.050;2023-11-21T14:43:00;1.27;;;0.73;;
81934;SDS011;71405;47.674;-2.050;2023-11-21T14:45:26;0.60;;;0.60;;
81934;SDS011;71405;47.674;-2.050;2023-11-21T14:47:53;1.05;;;0.70;;
81934;SDS011;71405;47.674;-2.050;2023-11-21T14:50:33;0.65;;;0.60;;
81934;SDS011;71405;47.674;-2.050;2023-11-21T14:53:34;1.73;;;0.82;;